Time;durP1;ratioP1;P1;durP2;ratioP2;P2;SDS_P1;SDS_P2;PMS_P1;PMS_P2;Temp;Humidity;BMP_temperature;BMP_pressure;BME280_temperature;BME280_humidity;BME280_pressure;Samples;Min_cycle;Max_cycle;Signal;HPM_P1;HPM_P2
2022/08/15 00:02:20;;;;;;;;;;;;;;;;;;5113727;28;1222;-70
2022/08/15 00:04:45;;;;;;;;;;;;;;;;;;5097566;28;1385;-70
2022/08/15 00:07:10;;;;;;;;;;;;;;;;;;5115006;28;1967;-70
2022/08/15 00:09:36;;;;;;;;;;;;;;;;;;5114793;28;923;-70
2022/08/15 00:12:02;;;;;;;;;;;;;;;;;;5097354;28;1238;-70
2022/08/15 00:14:31;;;;;;;;;;;;;;;;;;5114242;28;1206;-70
2022/08/15 00:16:57;;;;;;;;;;;;;;;;;;5115739;28;930;-70
2022/08/15 00:19:29;;;;;;;;;;;;;;;;;;5114111;28;977;-70
2022/08/15 00:21:59;;;;;;;;;;;;;;;;;;5115832;28;867;-70
2022/08/15 00:24:26;;;;;;;;;;;;;;;;;;5114553;28;890;-70
2022/08/15 00:26:51;;;;;;;;;;;;;;;;;;5114146;28;1981;-70
2022/08/15 00:29:18;;;;;;;;;;;;;;;;;;5113325;28;1194;-70
2022/08/15 00:31:43;;;;;;;;;;;;;;;;;;5114121;28;1264;-70
2022/08/15 00:34:10;;;;;;;;;;;;;;;;;;5114623;28;633;-70
2022/08/15 00:36:36;;;;;;;;;;;;;;;;;;5114588;28;1203;-70
2022/08/15 00:39:03;;;;;;;;;;;;;;;;;;5113300;28;1078;-70
2022/08/15 00:41:41;;;;;;;;;;;;;;;;;;5112828;28;1249;-71
2022/08/15 00:44:25;;;;;;;;;;;;;;;;;;5113018;28;982;-70
2022/08/15 00:46:55;;;;;;;;;;;;;;;;;;5114834;28;1910;-70
2022/08/15 00:49:21;;;;;;;;;;;;;;;;;;5117282;28;1381;-70
2022/08/15 00:51:50;;;;;;;;;;;;;;;;;;5116609;28;1506;-70
2022/08/15 00:54:19;;;;;;;;;;;;;;;;;;5095906;28;1471;-70
2022/08/15 00:56:49;;;;;;;;;;;;;;;;;;5095275;28;1360;-70
2022/08/15 00:59:17;;;;;;;;;;;;;;;;;;5111121;28;1349;-70
2022/08/15 01:01:43;;;;;;;;;;;;;;;;;;5114245;28;852;-70
2022/08/15 01:04:11;;;;;;;;;;;;;;;;;;5114293;28;883;-70
2022/08/15 01:06:37;;;;;;;;;;;;;;;;;;5115545;27;1906;-70
2022/08/15 01:09:03;;;;;;;;;;;;;;;;;;5113525;28;1490;-70
2022/08/15 01:11:34;;;;;;;;;;;;;;;;;;5112600;28;1305;-70
2022/08/15 01:14:00;;;;;;;;;;;;;;;;;;5111102;28;1336;-70
2022/08/15 01:16:26;;;;;;;;;;;;;;;;;;5112566;28;812;-70
2022/08/15 01:18:52;;;;;;;;;;;;;;;;;;5113749;28;911;-70
2022/08/15 01:21:26;;;;;;;;;;;;;;;;;;5112280;28;860;-70
2022/08/15 01:24:07;;;;;;;;;;;;;;;;;;5113927;28;776;-70
2022/08/15 01:26:32;;;;;;;;;;;;;;;;;;5112254;28;1988;-70
2022/08/15 01:28:58;;;;;;;;;;;;;;;;;;5113875;28;920;-70
2022/08/15 01:31:25;;;;;;;;;;;;;;;;;;5114018;27;982;-70
2022/08/15 01:33:56;;;;;;;;;;;;;;;;;;5112631;28;887;-70
2022/08/15 01:36:22;;;;;;;;;;;;;;;;;;5112424;28;1092;-70
2022/08/15 01:38:58;;;;;;;;;;;;;;;;;;5095527;28;1211;-70
2022/08/15 01:41:45;;;;;;;;;;;;;;;;;;5113654;28;983;-70
2022/08/15 01:44:20;;;;;;;;;;;;;;;;;;5112556;28;1237;-70
2022/08/15 01:47:02;;;;;;;;;;;;;;;;;;5112165;28;1974;-70
2022/08/15 01:49:29;;;;;;;;;;;;;;;;;;5111875;28;1229;-70
2022/08/15 01:51:57;;;;;;;;;;;;;;;;;;5113633;28;832;-70
2022/08/15 01:54:23;;;;;;;;;;;;;;;;;;5112924;28;910;-70
2022/08/15 01:56:49;;;;;;;;;;;;;;;;;;5113285;28;832;-70
2022/08/15 01:59:22;;;;;;;;;;;;;;;;;;5111093;28;1305;-70
2022/08/15 02:01:50;;;;;;;;;;;;;;;;;;5113041;28;954;-70
2022/08/15 02:04:16;;;;;;;;;;;;;;;;;;5112194;28;1470;-70
2022/08/15 02:06:43;;;;;;;;;;;;;;;;;;5113271;28;1866;-70
2022/08/15 02:09:11;;;;;;;;;;;;;;;;;;5111201;28;1178;-70
2022/08/15 02:11:37;;;;;;;;;;;;;;;;;;5111500;28;1401;-70
2022/08/15 02:14:02;;;;;;;;;;;;;;;;;;5112802;27;898;-70
2022/08/15 02:16:30;;;;;;;;;;;;;;;;;;5112301;28;1068;-70
2022/08/15 02:18:56;;;;;;;;;;;;;;;;;;5112668;28;843;-70
2022/08/15 02:21:22;;;;;;;;;;;;;;;;;;5112316;28;907;-70
2022/08/15 02:23:47;;;;;;;;;;;;;;;;;;5112478;27;899;-70
2022/08/15 02:26:12;;;;;;;;;;;;;;;;;;5111825;28;1957;-70
2022/08/15 02:28:41;;;;;;;;;;;;;;;;;;5111166;28;1468;-70
2022/08/15 02:31:09;;;;;;;;;;;;;;;;;;5110515;28;1284;-70
2022/08/15 02:33:35;;;;;;;;;;;;;;;;;;5110654;28;1233;-70
2022/08/15 02:36:00;;;;;;;;;;;;;;;;;;5110818;28;1258;-70
2022/08/15 02:38:25;;;;;;;;;;;;;;;;;;5110365;28;1178;-70
2022/08/15 02:40:51;;;;;;;;;;;;;;;;;;5093997;28;1281;-70
2022/08/15 02:43:17;;;;;;;;;;;;;;;;;;5110320;28;1114;-70
2022/08/15 02:45:47;;;;;;;;;;;;;;;;;;5112519;28;836;-70
2022/08/15 02:48:13;;;;;;;;;;;;;;;;;;5109954;28;1973;-70
2022/08/15 02:50:39;;;;;;;;;;;;;;;;;;5112839;28;817;-69
2022/08/15 02:53:12;;;;;;;;;;;;;;;;;;5113598;28;1017;-70
2022/08/15 02:55:39;;;;;;;;;;;;;;;;;;5112049;28;957;-70
2022/08/15 02:58:04;;;;;;;;;;;;;;;;;;5112730;28;823;-70
2022/08/15 03:00:30;;;;;;;;;;;;;;;;;;5111842;28;900;-70
2022/08/15 03:02:57;;;;;;;;;;;;;;;;;;5113066;28;836;-70
2022/08/15 03:05:23;;;;;;;;;;;;;;;;;;5111592;28;1120;-70
2022/08/15 03:07:49;;;;;;;;;;;;;;;;;;5112436;28;1921;-70
2022/08/15 03:10:14;;;;;;;;;;;;;;;;;;5094111;28;1312;-70
2022/08/15 03:12:53;;;;;;;;;;;;;;;;;;5112918;28;843;-70
2022/08/15 03:15:19;;;;;;;;;;;;;;;;;;5110617;28;1178;-70
2022/08/15 03:17:44;;;;;;;;;;;;;;;;;;5110510;28;1245;-70
2022/08/15 03:20:10;;;;;;;;;;;;;;;;;;5093489;28;1269;-70
2022/08/15 03:22:41;;;;;;;;;;;;;;;;;;5111904;28;847;-70
2022/08/15 03:25:06;;;;;;;;;;;;;;;;;;5111907;28;836;-70
2022/08/15 03:27:32;;;;;;;;;;;;;;;;;;5110138;28;1893;-70
2022/08/15 03:29:57;;;;;;;;;;;;;;;;;;5111650;28;903;-70
2022/08/15 03:32:23;;;;;;;;;;;;;;;;;;5111619;28;926;-70
2022/08/15 03:34:48;;;;;;;;;;;;;;;;;;5111727;28;907;-70
2022/08/15 03:37:14;;;;;;;;;;;;;;;;;;5111263;28;1072;-70
2022/08/15 03:39:39;;;;;;;;;;;;;;;;;;5110208;28;1356;-70
2022/08/15 03:42:09;;;;;;;;;;;;;;;;;;5111330;28;762;-70
2022/08/15 03:44:34;;;;;;;;;;;;;;;;;;5110338;28;1392;-70
2022/08/15 03:46:59;;;;;;;;;;;;;;;;;;5111466;28;1902;-70
2022/08/15 03:49:25;;;;;;;;;;;;;;;;;;5109809;28;911;-70
2022/08/15 03:51:50;;;;;;;;;;;;;;;;;;5093337;28;1289;-70
2022/08/15 03:54:15;;;;;;;;;;;;;;;;;;5111332;28;935;-70
2022/08/15 03:56:42;;;;;;;;;;;;;;;;;;5110512;28;1019;-70
2022/08/15 03:59:08;;;;;;;;;;;;;;;;;;5095161;28;1406;-70
2022/08/15 04:01:35;;;;;;;;;;;;;;;;;;5113564;28;1312;-70
2022/08/15 04:04:00;;;;;;;;;;;;;;;;;;5115613;27;836;-70
2022/08/15 04:06:29;;;;;;;;;;;;;;;;;;5114663;28;1951;-70
2022/08/15 04:08:55;;;;;;;;;;;;;;;;;;5115207;28;875;-71
2022/08/15 04:11:23;;;;;;;;;;;;;;;;;;5114865;28;804;-70
2022/08/15 04:13:48;;;;;;;;;;;;;;;;;;5113536;28;1205;-70
2022/08/15 04:16:14;;;;;;;;;;;;;;;;;;5114723;28;760;-70
2022/08/15 04:18:40;;;;;;;;;;;;;;;;;;5115107;28;892;-70
2022/08/15 04:21:07;;;;;;;;;;;;;;;;;;5113490;28;1469;-70
2022/08/15 04:23:32;;;;;;;;;;;;;;;;;;5113398;28;1233;-70
2022/08/15 04:25:57;;;;;;;;;;;;;;;;;;5114338;28;1897;-70
2022/08/15 04:28:24;;;;;;;;;;;;;;;;;;5113490;28;1155;-70
2022/08/15 04:30:49;;;;;;;;;;;;;;;;;;5113898;28;1333;-70
2022/08/15 04:33:17;;;;;;;;;;;;;;;;;;5115259;28;879;-70
2022/08/15 04:35:44;;;;;;;;;;;;;;;;;;5113987;28;1214;-70
2022/08/15 04:38:09;;;;;;;;;;;;;;;;;;5115077;28;762;-70
2022/08/15 04:40:34;;;;;;;;;;;;;;;;;;5113883;28;1261;-70
2022/08/15 04:43:00;;;;;;;;;;;;;;;;;;5082379;28;1170;-71
2022/08/15 04:45:26;;;;;;;;;;;;;;;;;;5056036;28;1356;-71
2022/08/15 04:47:51;;;;;;;;;;;;;;;;;;5074897;28;1918;-70
2022/08/15 04:50:17;;;;;;;;;;;;;;;;;;5073080;28;1172;-70
2022/08/15 04:52:54;;;;;;;;;;;;;;;;;;5074080;28;828;-70
2022/08/15 04:55:20;;;;;;;;;;;;;;;;;;5073873;28;883;-70
2022/08/15 04:57:45;;;;;;;;;;;;;;;;;;5073815;28;884;-70
2022/08/15 05:00:12;;;;;;;;;;;;;;;;;;5072985;28;1243;-70
2022/08/15 05:02:38;;;;;;;;;;;;;;;;;;5072753;28;1182;-70
2022/08/15 05:05:07;;;;;;;;;;;;;;;;;;5073789;28;1002;-70
2022/08/15 05:07:33;;;;;;;;;;;;;;;;;;5073534;28;1906;-70
2022/08/15 05:09:58;;;;;;;;;;;;;;;;;;5055755;28;1200;-71
2022/08/15 05:12:24;;;;;;;;;;;;;;;;;;5071841;28;1301;-70
2022/08/15 05:14:49;;;;;;;;;;;;;;;;;;5073262;28;1468;-70
2022/08/15 05:17:15;;;;;;;;;;;;;;;;;;5055328;28;1495;-71
2022/08/15 05:19:40;;;;;;;;;;;;;;;;;;5071884;28;1187;-71
2022/08/15 05:22:05;;;;;;;;;;;;;;;;;;5073420;28;888;-70
2022/08/15 05:24:30;;;;;;;;;;;;;;;;;;5072502;28;998;-70
2022/08/15 05:26:56;;;;;;;;;;;;;;;;;;5071766;28;1906;-70
2022/08/15 05:29:21;;;;;;;;;;;;;;;;;;5073112;28;1190;-70
2022/08/15 05:31:46;;;;;;;;;;;;;;;;;;5111821;28;1285;-71
2022/08/15 05:34:11;;;;;;;;;;;;;;;;;;5114312;28;907;-70
2022/08/15 05:36:37;;;;;;;;;;;;;;;;;;5094856;28;1195;-70
2022/08/15 05:39:19;;;;;;;;;;;;;;;;;;5112528;28;1153;-70
2022/08/15 05:42:01;;;;;;;;;;;;;;;;;;5113108;28;887;-70
2022/08/15 05:44:29;;;;;;;;;;;;;;;;;;5113460;28;840;-70
2022/08/15 05:47:04;;;;;;;;;;;;;;;;;;5113535;28;1965;-70
2022/08/15 05:49:42;;;;;;;;;;;;;;;;;;5112946;28;887;-70
2022/08/15 05:52:26;;;;;;;;;;;;;;;;;;5111904;28;1334;-70
2022/08/15 05:55:03;;;;;;;;;;;;;;;;;;5111872;28;1360;-70
2022/08/15 05:57:40;;;;;;;;;;;;;;;;;;5112858;28;902;-70
2022/08/15 06:00:07;;;;;;;;;;;;;;;;;;5113500;28;844;-71
2022/08/15 06:02:37;;;;;;;;;;;;;;;;;;5111780;28;1220;-70
2022/08/15 06:05:03;;;;;;;;;;;;;;;;;;5113269;28;887;-70
2022/08/15 06:07:29;;;;;;;;;;;;;;;;;;5113437;28;1967;-70
2022/08/15 06:10:10;;;;;;;;;;;;;;;;;;5114039;28;820;-70
2022/08/15 06:12:35;;;;;;;;;;;;;;;;;;5114870;28;906;-70
2022/08/15 06:15:04;;;;;;;;;;;;;;;;;;5112359;28;1340;-70
2022/08/15 06:17:37;;;;;;;;;;;;;;;;;;5112300;28;1146;-70
2022/08/15 06:20:06;;;;;;;;;;;;;;;;;;5112692;28;1348;-70
2022/08/15 06:22:46;;;;;;;;;;;;;;;;;;5112726;28;832;-70
2022/08/15 06:25:28;;;;;;;;;;;;;;;;;;5112821;28;1329;-69
2022/08/15 06:28:17;;;;;;;;;;;;;;;;;;5113952;28;1980;-70
2022/08/15 06:30:45;;;;;;;;;;;;;;;;;;5111848;28;1332;-70
2022/08/15 06:33:19;;;;;;;;;;;;;;;;;;5112407;28;1316;-70
2022/08/15 06:35:58;;;;;;;;;;;;;;;;;;5112072;28;1461;-70
2022/08/15 06:38:37;;;;;;;;;;;;;;;;;;5112838;28;1214;-70
2022/08/15 06:41:22;;;;;;;;;;;;;;;;;;5112284;28;1016;-69
2022/08/15 06:43:48;;;;;;;;;;;;;;;;;;5102067;28;1137;-69
2022/08/15 06:46:14;;;;;;;;;;;;;;;;;;5110803;28;1891;-69
2022/08/15 06:48:41;;;;;;;;;;;;;;;;;;5110699;28;1254;-69
2022/08/15 06:51:07;;;;;;;;;;;;;;;;;;5110780;28;1546;-69
2022/08/15 06:53:32;;;;;;;;;;;;;;;;;;5111758;28;935;-70
2022/08/15 06:55:58;;;;;;;;;;;;;;;;;;5111986;28;888;-70
2022/08/15 06:58:28;;;;;;;;;;;;;;;;;;5111709;28;828;-69
2022/08/15 07:00:57;;;;;;;;;;;;;;;;;;5112009;28;757;-69
2022/08/15 07:03:52;;;;;;;;;;;;;;;;;;5111649;28;851;-69
2022/08/15 07:06:21;;;;;;;;;;;;;;;;;;5092789;28;1894;-69
2022/08/15 07:08:46;;;;;;;;;;;;;;;;;;5111564;28;883;-70
2022/08/15 07:11:12;;;;;;;;;;;;;;;;;;5110334;28;1109;-69
2022/08/15 07:13:50;;;;;;;;;;;;;;;;;;5110285;28;1226;-69
2022/08/15 07:16:23;;;;;;;;;;;;;;;;;;5110067;28;1464;-70
2022/08/15 07:18:50;;;;;;;;;;;;;;;;;;5110390;28;1175;-70
2022/08/15 07:21:17;;;;;;;;;;;;;;;;;;5111068;28;1221;-69
2022/08/15 07:24:00;;;;;;;;;;;;;;;;;;5087719;28;1155;-69
2022/08/15 07:26:27;;;;;;;;;;;;;;;;;;5091382;28;2016;-69
2022/08/15 07:28:55;;;;;;;;;;;;;;;;;;5091076;28;911;-70
2022/08/15 07:31:25;;;;;;;;;;;;;;;;;;5090973;28;955;-69
2022/08/15 07:33:51;;;;;;;;;;;;;;;;;;5091689;28;896;-69
2022/08/15 07:36:20;;;;;;;;;;;;;;;;;;5094863;28;1053;-70
2022/08/15 07:38:45;;;;;;;;;;;;;;;;;;5093638;28;1492;-70
2022/08/15 07:41:17;;;;;;;;;;;;;;;;;;5094896;28;765;-70
2022/08/15 07:43:43;;;;;;;;;;;;;;;;;;5088525;28;1187;-70
2022/08/15 07:46:08;;;;;;;;;;;;;;;;;;5104953;28;1964;-70
2022/08/15 07:48:34;;;;;;;;;;;;;;;;;;5077456;28;1345;-70
2022/08/15 07:51:14;;;;;;;;;;;;;;;;;;5074489;28;991;-70
2022/08/15 07:53:48;;;;;;;;;;;;;;;;;;5075635;28;986;-70
2022/08/15 07:56:15;;;;;;;;;;;;;;;;;;5073776;28;1238;-70
2022/08/15 07:58:41;;;;;;;;;;;;;;;;;;5075660;28;1077;-70
2022/08/15 08:01:09;;;;;;;;;;;;;;;;;;5075919;28;899;-70
2022/08/15 08:03:35;;;;;;;;;;;;;;;;;;5074086;28;1305;-71
2022/08/15 08:06:03;;;;;;;;;;;;;;;;;;5075333;28;848;-71
2022/08/15 08:08:34;;;;;;;;;;;;;;;;;;5074509;28;1471;-70
2022/08/15 08:11:26;;;;;;;;;;;;;;;;;;5073521;28;1340;-70
2022/08/15 08:14:02;;;;;;;;;;;;;;;;;;5072431;28;987;-70
2022/08/15 08:16:33;;;;;;;;;;;;;;;;;;5074451;28;877;-70
2022/08/15 08:19:04;;;;;;;;;;;;;;;;;;5073673;28;1102;-70
2022/08/15 08:21:33;;;;;;;;;;;;;;;;;;5073152;28;1182;-70
2022/08/15 08:24:08;;;;;;;;;;;;;;;;;;5074642;28;939;-70
2022/08/15 08:26:36;;;;;;;;;;;;;;;;;;5072464;28;1968;-70
2022/08/15 08:29:07;;;;;;;;;;;;;;;;;;5072919;28;1178;-70
2022/08/15 08:32:02;;;;;;;;;;;;;;;;;;5074078;28;1019;-70
2022/08/15 08:34:39;;;;;;;;;;;;;;;;;;5020268;28;1291;-70
2022/08/15 08:37:09;;;;;;;;;;;;;;;;;;5087907;28;1274;-70
2022/08/15 08:39:49;;;;;;;;;;;;;;;;;;5093902;28;816;-70
2022/08/15 08:42:14;;;;;;;;;;;;;;;;;;5094387;28;911;-70
2022/08/15 08:44:50;;;;;;;;;;;;;;;;;;5074808;28;1297;-70
2022/08/15 08:47:19;;;;;;;;;;;;;;;;;;5093766;28;1971;-70
2022/08/15 08:49:56;;;;;;;;;;;;;;;;;;5075644;28;1237;-70
2022/08/15 08:52:32;;;;;;;;;;;;;;;;;;5093190;28;943;-70
2022/08/15 08:55:07;;;;;;;;;;;;;;;;;;5093533;28;969;-70
2022/08/15 08:57:38;;;;;;;;;;;;;;;;;;5093517;28;837;-70
2022/08/15 09:00:09;;;;;;;;;;;;;;;;;;5075362;28;1189;-70
2022/08/15 09:02:50;;;;;;;;;;;;;;;;;;5075090;28;1289;-70
2022/08/15 09:05:28;;;;;;;;;;;;;;;;;;5093711;28;888;-69
2022/08/15 09:08:20;;;;;;;;;;;;;;;;;;5074954;28;1880;-70
2022/08/15 09:10:47;;;;;;;;;;;;;;;;;;5072102;28;1237;-70
2022/08/15 09:16:02;;;;;;;;;;;;;;;;;;5078248;28;699;-70
2022/08/15 09:18:30;;;;;;;;;;;;;;;;;;5075313;28;1357;-70
2022/08/15 09:20:59;;;;;;;;;;;;;;;;;;5074936;28;1329;-70
2022/08/15 09:23:27;;;;;;;;;;;;;;;;;;5092775;28;809;-70
2022/08/15 09:26:10;;;;;;;;;;;;;;;;;;5093434;28;801;-70
2022/08/15 09:28:37;;;;;;;;;;;;;;;;;;5075299;28;1187;-70
2022/08/15 09:31:09;;;;;;;;;;;;;;;;;;5093616;28;888;-70
2022/08/15 09:33:34;;;;;;;;;;;;;;;;;;5075479;28;1214;-70
2022/08/15 09:36:15;;;;;;;;;;;;;;;;;;5093192;28;1345;-70
2022/08/15 09:38:57;;;;;;;;;;;;;;;;;;5093615;28;1010;-70
2022/08/15 09:41:40;;;;;;;;;;;;;;;;;;5093541;28;832;-70
2022/08/15 09:44:19;;;;;;;;;;;;;;;;;;5075028;28;1356;-70
2022/08/15 09:46:45;;;;;;;;;;;;;;;;;;5075557;28;1918;-70
2022/08/15 09:49:40;;;;;;;;;;;;;;;;;;5093366;28;844;-70
2022/08/15 09:52:24;;;;;;;;;;;;;;;;;;5053967;28;1221;-70
2022/08/15 09:54:52;;;;;;;;;;;;;;;;;;5074912;28;1310;-70
2022/08/15 09:57:18;;;;;;;;;;;;;;;;;;5091955;28;856;-70
2022/08/15 09:59:43;;;;;;;;;;;;;;;;;;5075192;28;1304;-70
2022/08/15 10:02:19;;;;;;;;;;;;;;;;;;5093311;28;923;-70
2022/08/15 10:04:44;;;;;;;;;;;;;;;;;;5092765;28;904;-70
2022/08/15 10:07:09;;;;;;;;;;;;;;;;;;5074615;28;1910;-71
2022/08/15 10:09:37;;;;;;;;;;;;;;;;;;5093360;28;919;-70
2022/08/15 10:12:09;;;;;;;;;;;;;;;;;;5074938;28;1305;-71
2022/08/15 10:14:47;;;;;;;;;;;;;;;;;;5074260;28;1396;-70
2022/08/15 10:17:31;;;;;;;;;;;;;;;;;;5092230;28;888;-70
2022/08/15 10:20:17;;;;;;;;;;;;;;;;;;5074232;28;1124;-70
2022/08/15 10:22:50;;;;;;;;;;;;;;;;;;5074477;28;1282;-70
2022/08/15 10:25:35;;;;;;;;;;;;;;;;;;5074170;28;1263;-70
2022/08/15 10:28:06;;;;;;;;;;;;;;;;;;5091581;28;1901;-70
2022/08/15 10:30:33;;;;;;;;;;;;;;;;;;5092038;28;1148;-70
2022/08/15 10:33:00;;;;;;;;;;;;;;;;;;5092191;28;1017;-71
2022/08/15 10:35:26;;;;;;;;;;;;;;;;;;5091593;28;801;-70
2022/08/15 10:37:56;;;;;;;;;;;;;;;;;;5070471;28;1230;-70
2022/08/15 10:40:25;;;;;;;;;;;;;;;;;;5070082;28;1459;-70
2022/08/15 10:42:50;;;;;;;;;;;;;;;;;;5071870;28;806;-70
2022/08/15 10:45:23;;;;;;;;;;;;;;;;;;5071677;28;844;-70
2022/08/15 10:48:03;;;;;;;;;;;;;;;;;;5071877;28;1991;-70
2022/08/15 10:50:34;;;;;;;;;;;;;;;;;;5069923;28;1206;-70
2022/08/15 10:53:07;;;;;;;;;;;;;;;;;;5071231;28;1041;-70
2022/08/15 10:55:34;;;;;;;;;;;;;;;;;;5071209;28;973;-70
2022/08/15 10:58:01;;;;;;;;;;;;;;;;;;5071604;28;896;-71
2022/08/15 11:00:45;;;;;;;;;;;;;;;;;;5069781;28;1360;-70
2022/08/15 11:03:22;;;;;;;;;;;;;;;;;;5071431;28;852;-70
2022/08/15 11:06:02;;;;;;;;;;;;;;;;;;5070201;28;1199;-70
2022/08/15 11:08:27;;;;;;;;;;;;;;;;;;5071044;28;1894;-70
2022/08/15 11:10:59;;;;;;;;;;;;;;;;;;5071616;28;856;-71
2022/08/15 11:13:28;;;;;;;;;;;;;;;;;;5071576;28;896;-70
2022/08/15 11:16:06;;;;;;;;;;;;;;;;;;5073603;28;1437;-70
2022/08/15 11:18:43;;;;;;;;;;;;;;;;;;5075187;28;1014;-70
2022/08/15 11:21:27;;;;;;;;;;;;;;;;;;5078217;28;1089;-70
2022/08/15 11:23:55;;;;;;;;;;;;;;;;;;5075712;28;1217;-70
2022/08/15 11:26:27;;;;;;;;;;;;;;;;;;5074761;28;1894;-70
2022/08/15 11:29:15;;;;;;;;;;;;;;;;;;5071379;28;1333;-70
2022/08/15 11:31:45;;;;;;;;;;;;;;;;;;5070185;28;1334;-70
2022/08/15 11:34:20;;;;;;;;;;;;;;;;;;5071568;28;1002;-70
2022/08/15 11:36:46;;;;;;;;;;;;;;;;;;5081105;28;1081;-70
2022/08/15 11:39:13;;;;;;;;;;;;;;;;;;5073383;28;1163;-70
2022/08/15 11:41:39;;;;;;;;;;;;;;;;;;5072937;28;1578;-70
2022/08/15 11:44:06;;;;;;;;;;;;;;;;;;5091245;28;884;-70
2022/08/15 11:46:32;;;;;;;;;;;;;;;;;;5090987;28;1957;-70
2022/08/15 11:49:07;;;;;;;;;;;;;;;;;;5056378;28;1324;-70
2022/08/15 11:51:38;;;;;;;;;;;;;;;;;;5091864;28;865;-70
2022/08/15 11:54:03;;;;;;;;;;;;;;;;;;5091345;28;824;-70
2022/08/15 11:56:47;;;;;;;;;;;;;;;;;;5072539;28;1171;-70
2022/08/15 11:59:20;;;;;;;;;;;;;;;;;;5072573;28;1350;-70
2022/08/15 12:02:06;;;;;;;;;;;;;;;;;;5091005;28;900;-70
2022/08/15 12:04:33;;;;;;;;;;;;;;;;;;5079713;28;1205;-70
2022/08/15 12:07:04;;;;;;;;;;;;;;;;;;5091352;28;1962;-70
2022/08/15 12:09:31;;;;;;;;;;;;;;;;;;5090612;28;809;-70
2022/08/15 12:11:56;;;;;;;;;;;;;;;;;;5072678;28;1345;-70
2022/08/15 12:14:21;;;;;;;;;;;;;;;;;;5072342;28;991;-70
2022/08/15 12:16:48;;;;;;;;;;;;;;;;;;5090308;28;884;-70
2022/08/15 12:19:24;;;;;;;;;;;;;;;;;;5072265;28;1354;-70
2022/08/15 12:21:50;;;;;;;;;;;;;;;;;;5094334;28;801;-70
2022/08/15 12:24:24;;;;;;;;;;;;;;;;;;5094133;28;880;-70
2022/08/15 12:26:52;;;;;;;;;;;;;;;;;;5093819;28;1893;-70
2022/08/15 12:29:20;;;;;;;;;;;;;;;;;;5093594;28;864;-70
2022/08/15 12:31:45;;;;;;;;;;;;;;;;;;5094078;28;889;-70
2022/08/15 12:34:13;;;;;;;;;;;;;;;;;;5076573;28;1311;-70
2022/08/15 12:36:40;;;;;;;;;;;;;;;;;;5072391;28;1280;-70
2022/08/15 12:39:05;;;;;;;;;;;;;;;;;;5074341;28;848;-70
2022/08/15 12:41:31;;;;;;;;;;;;;;;;;;5072909;28;1214;-70
2022/08/15 12:43:56;;;;;;;;;;;;;;;;;;5074007;28;888;-70
2022/08/15 12:46:22;;;;;;;;;;;;;;;;;;5055988;28;1905;-70
2022/08/15 12:48:47;;;;;;;;;;;;;;;;;;5073437;28;1253;-70
2022/08/15 12:51:14;;;;;;;;;;;;;;;;;;5074137;28;840;-70
2022/08/15 12:53:39;;;;;;;;;;;;;;;;;;5074219;28;991;-70
2022/08/15 12:56:07;;;;;;;;;;;;;;;;;;5074226;28;890;-70
2022/08/15 12:58:32;;;;;;;;;;;;;;;;;;5056330;28;1341;-70
2022/08/15 13:00:57;;;;;;;;;;;;;;;;;;5073494;28;1357;-70
2022/08/15 13:03:28;;;;;;;;;;;;;;;;;;5074006;28;828;-70
2022/08/15 13:06:02;;;;;;;;;;;;;;;;;;5072147;28;1221;-70
2022/08/15 13:08:27;;;;;;;;;;;;;;;;;;5072030;28;1893;-70
2022/08/15 13:10:54;;;;;;;;;;;;;;;;;;5073850;28;836;-70
2022/08/15 13:13:19;;;;;;;;;;;;;;;;;;5071933;28;1198;-70
2022/08/15 13:15:45;;;;;;;;;;;;;;;;;;5073354;28;821;-70
2022/08/15 13:18:15;;;;;;;;;;;;;;;;;;5072035;28;1246;-70
2022/08/15 13:23:40;;;;;;;;;;;;;;;;;;5073748;28;667;-70
2022/08/15 13:26:13;;;;;;;;;;;;;;;;;;5073993;28;907;-70
2022/08/15 13:28:43;;;;;;;;;;;;;;;;;;5072447;28;1889;-70
2022/08/15 13:31:10;;;;;;;;;;;;;;;;;;5073896;28;998;-70
2022/08/15 13:33:35;;;;;;;;;;;;;;;;;;5073217;28;904;-70
2022/08/15 13:36:03;;;;;;;;;;;;;;;;;;5072020;28;1213;-70
2022/08/15 13:38:29;;;;;;;;;;;;;;;;;;5072964;28;1004;-70
2022/08/15 13:40:55;;;;;;;;;;;;;;;;;;5073199;28;875;-70
2022/08/15 13:43:20;;;;;;;;;;;;;;;;;;5072801;28;887;-70
2022/08/15 13:45:47;;;;;;;;;;;;;;;;;;5072790;28;896;-70
2022/08/15 13:48:20;;;;;;;;;;;;;;;;;;5071605;28;1930;-69
2022/08/15 13:50:46;;;;;;;;;;;;;;;;;;5072671;28;1135;-70
2022/08/15 13:53:12;;;;;;;;;;;;;;;;;;5071583;28;1214;-71
2022/08/15 13:55:37;;;;;;;;;;;;;;;;;;5071402;28;1292;-70
2022/08/15 13:58:03;;;;;;;;;;;;;;;;;;5072987;28;828;-70
2022/08/15 14:00:28;;;;;;;;;;;;;;;;;;5070737;28;1425;-70
2022/08/15 14:02:53;;;;;;;;;;;;;;;;;;5072877;28;1007;-70
2022/08/15 14:05:19;;;;;;;;;;;;;;;;;;5071480;28;919;-70
2022/08/15 14:07:45;;;;;;;;;;;;;;;;;;5054677;28;1965;-70
2022/08/15 14:10:11;;;;;;;;;;;;;;;;;;5071754;28;1612;-70
2022/08/15 14:12:36;;;;;;;;;;;;;;;;;;5072569;28;824;-70
2022/08/15 14:15:02;;;;;;;;;;;;;;;;;;5071293;28;1156;-70
2022/08/15 14:17:28;;;;;;;;;;;;;;;;;;5070919;28;1252;-70
2022/08/15 14:19:53;;;;;;;;;;;;;;;;;;5072743;28;978;-70
2022/08/15 14:22:19;;;;;;;;;;;;;;;;;;5071328;28;1150;-70
2022/08/15 14:24:44;;;;;;;;;;;;;;;;;;5071014;28;1229;-69
2022/08/15 14:27:10;;;;;;;;;;;;;;;;;;5070955;28;1897;-70
2022/08/15 14:29:39;;;;;;;;;;;;;;;;;;5053761;28;1242;-70
2022/08/15 14:32:04;;;;;;;;;;;;;;;;;;5053818;28;1230;-70
2022/08/15 14:34:30;;;;;;;;;;;;;;;;;;5071601;28;995;-70
2022/08/15 14:36:56;;;;;;;;;;;;;;;;;;5070424;28;1317;-70
2022/08/15 14:39:22;;;;;;;;;;;;;;;;;;5070676;28;1348;-70
2022/08/15 14:41:48;;;;;;;;;;;;;;;;;;5053665;28;1176;-71
2022/08/15 14:44:15;;;;;;;;;;;;;;;;;;5071250;28;879;-70
2022/08/15 14:46:41;;;;;;;;;;;;;;;;;;5070117;28;1973;-70
2022/08/15 14:49:06;;;;;;;;;;;;;;;;;;5072084;28;821;-71
2022/08/15 14:51:33;;;;;;;;;;;;;;;;;;5071105;28;778;-71
2022/08/15 14:54:02;;;;;;;;;;;;;;;;;;5072520;28;773;-70
2022/08/15 14:56:29;;;;;;;;;;;;;;;;;;5071810;28;888;-71
2022/08/15 14:58:55;;;;;;;;;;;;;;;;;;5070326;28;1285;-70
2022/08/15 15:01:22;;;;;;;;;;;;;;;;;;5070113;28;1273;-70
2022/08/15 15:03:50;;;;;;;;;;;;;;;;;;5070611;28;863;-70
2022/08/15 15:06:19;;;;;;;;;;;;;;;;;;5053876;28;1203;-71
2022/08/15 15:08:44;;;;;;;;;;;;;;;;;;5071098;28;872;-70
2022/08/15 15:11:10;;;;;;;;;;;;;;;;;;5070444;28;824;-70
2022/08/15 15:13:35;;;;;;;;;;;;;;;;;;5070984;28;820;-70
2022/08/15 15:16:01;;;;;;;;;;;;;;;;;;5053708;28;1288;-70
2022/08/15 15:18:26;;;;;;;;;;;;;;;;;;5070171;28;828;-70
2022/08/15 15:20:55;;;;;;;;;;;;;;;;;;5085944;28;1289;-70
2022/08/15 15:23:21;;;;;;;;;;;;;;;;;;5110480;28;1222;-70
2022/08/15 15:25:46;;;;;;;;;;;;;;;;;;5110645;28;848;-71
2022/08/15 15:28:13;;;;;;;;;;;;;;;;;;5112398;28;1953;-71
2022/08/15 15:30:38;;;;;;;;;;;;;;;;;;5110370;28;1305;-71
2022/08/15 15:33:04;;;;;;;;;;;;;;;;;;5112907;28;832;-71
2022/08/15 15:35:29;;;;;;;;;;;;;;;;;;5112383;28;840;-71
2022/08/15 15:37:55;;;;;;;;;;;;;;;;;;5110326;28;1280;-72
2022/08/15 15:40:22;;;;;;;;;;;;;;;;;;5112519;28;848;-71
2022/08/15 15:42:48;;;;;;;;;;;;;;;;;;5110388;28;1166;-70
2022/08/15 15:45:13;;;;;;;;;;;;;;;;;;5111909;28;828;-70
2022/08/15 15:47:41;;;;;;;;;;;;;;;;;;5110548;28;1973;-71
2022/08/15 15:50:08;;;;;;;;;;;;;;;;;;5112351;28;848;-71
2022/08/15 15:52:33;;;;;;;;;;;;;;;;;;5085064;28;1230;-71
2022/08/15 15:55:00;;;;;;;;;;;;;;;;;;5071462;28;888;-70
2022/08/15 15:57:26;;;;;;;;;;;;;;;;;;5076263;28;875;-71
2022/08/15 15:59:52;;;;;;;;;;;;;;;;;;5075220;28;1213;-71
2022/08/15 16:02:20;;;;;;;;;;;;;;;;;;5074610;28;1419;-71
2022/08/15 16:04:45;;;;;;;;;;;;;;;;;;5075619;28;998;-72
2022/08/15 16:07:10;;;;;;;;;;;;;;;;;;5074748;28;1894;-71
2022/08/15 16:09:36;;;;;;;;;;;;;;;;;;5073620;28;896;-71
2022/08/15 16:12:13;;;;;;;;;;;;;;;;;;5073912;28;1372;-71
2022/08/15 16:14:40;;;;;;;;;;;;;;;;;;5073495;28;1385;-71
2022/08/15 16:17:18;;;;;;;;;;;;;;;;;;5074850;28;895;-71
2022/08/15 16:19:55;;;;;;;;;;;;;;;;;;5074919;28;875;-70
2022/08/15 16:22:24;;;;;;;;;;;;;;;;;;5072825;28;1221;-71
2022/08/15 16:25:09;;;;;;;;;;;;;;;;;;5072720;28;1314;-71
2022/08/15 16:27:38;;;;;;;;;;;;;;;;;;5073447;28;1898;-70
2022/08/15 16:30:09;;;;;;;;;;;;;;;;;;5073377;28;1298;-70
2022/08/15 16:32:40;;;;;;;;;;;;;;;;;;5072484;28;1564;-70
2022/08/15 16:35:12;;;;;;;;;;;;;;;;;;5074246;28;892;-70
2022/08/15 16:37:40;;;;;;;;;;;;;;;;;;5088535;28;1246;-70
2022/08/15 16:40:11;;;;;;;;;;;;;;;;;;5094447;28;805;-70
2022/08/15 16:42:45;;;;;;;;;;;;;;;;;;5094788;28;967;-70
2022/08/15 16:45:12;;;;;;;;;;;;;;;;;;5094790;28;852;-70
2022/08/15 16:47:43;;;;;;;;;;;;;;;;;;5093934;28;1953;-70
2022/08/15 16:50:18;;;;;;;;;;;;;;;;;;5076143;28;1180;-70
2022/08/15 16:53:02;;;;;;;;;;;;;;;;;;5094034;28;1003;-70
2022/08/15 16:55:28;;;;;;;;;;;;;;;;;;5076149;28;1266;-70
2022/08/15 16:58:11;;;;;;;;;;;;;;;;;;5075832;28;1409;-71
2022/08/15 17:00:58;;;;;;;;;;;;;;;;;;5074943;28;1707;-71
2022/08/15 17:03:23;;;;;;;;;;;;;;;;;;5082433;28;1247;-71
2022/08/15 17:05:58;;;;;;;;;;;;;;;;;;5090904;28;1562;-70
2022/08/15 17:08:34;;;;;;;;;;;;;;;;;;5074955;28;1977;-70
2022/08/15 17:11:03;;;;;;;;;;;;;;;;;;5093266;28;1120;-70
2022/08/15 17:13:47;;;;;;;;;;;;;;;;;;5100224;28;1179;-70
2022/08/15 17:16:15;;;;;;;;;;;;;;;;;;5101468;28;1203;-70
2022/08/15 17:18:56;;;;;;;;;;;;;;;;;;5093812;28;1358;-70
2022/08/15 17:21:27;;;;;;;;;;;;;;;;;;5114393;28;939;-70
2022/08/15 17:23:59;;;;;;;;;;;;;;;;;;5113773;28;1028;-70
2022/08/15 17:26:25;;;;;;;;;;;;;;;;;;5095789;28;1890;-70
2022/08/15 17:28:51;;;;;;;;;;;;;;;;;;5085782;28;1492;-71
2022/08/15 17:31:19;;;;;;;;;;;;;;;;;;5092992;28;1052;-70
2022/08/15 17:33:58;;;;;;;;;;;;;;;;;;5075561;28;1240;-71